Terminal Aerodrome Forecast
Issued by NWS Twin Cities, MN

Home | Current Version | Previous Version | Graphics & Text | Print | Product List | Glossary On
Versions: 1 2 3 4 5 6 7 8 9 10 11 12 13 14 15 16 17 18
000
FTUS43 KMPX 252320
TAFSTC
TAF
KSTC 252320Z 2600/2624 03009KT P6SM VCSH OVC009
     FM260400 03007KT 5SM BR OVC003
     FM261500 06010KT 6SM BR OVC006
     FM261800 07012G17KT P6SM OVC015=

USA.gov is the U.S. government's official web portal to all federal, state and local government web resources and services.